Información del aeropuerto MBPV

Información de pista
Pista 10 Longitud 7598 ft Anchura 148 ft
Elevación 13 ft Umbral 600 ft Rumbo 93
Pista 28 Longitud 7598 ft Anchura 148 ft
Elevación 3 ft Umbral 0 ft Rumbo 273
Frecuencias del aeropuerto
Tipo APP Nombre PROVO APP Frecuencia 126 MHZ
Tipo GND Nombre GND Frecuencia 121.9 MHZ
Tipo TWR Nombre TWR Frecuencia 119.9 MHZ
Radioayudas del aeropuerto
Tipo NDB Nombre Providenciales Frecuencia 387 KHZ
Tipo VOR-DME Nombre Providenciales Frecuencia 115600 KHZ
Información meteorológica del aeropuerto y NOTAM
ADDS - METARS form results

(0120 UTC 06 May 2021)
Data provider http://aviationweather.gov/metar/data/
 
Forecast for: MBPV (PROVIDENCIALES , BS)
Text: MBPV 052115Z 0600/0624 10012KT 9999 SCT020
Forecast period: 0000 UTC 06 May 2021 to 0000 UTC 07 May 2021
Forecast type: FROM: standard forecast or significant change
Winds: from the E (100 degrees) at 14 MPH (12 knots; 6.2 m/s)
Visibility: 6 or more miles (10+ km)
Ceiling: at least 12,000 feet AGL
Clouds: scattered clouds at 2000 feet AGL
Weather: no significant weather forecast for this period